sensor_id;sensor_type;location;lat;lon;timestamp;P1;durP1;ratioP1;P2;durP2;ratioP2
7761;SDS011;3925;48.636;9.516;2022-11-15T00:01:17;3.50;;;1.47;;
7761;SDS011;3925;48.636;9.516;2022-11-15T00:03:45;1.80;;;0.90;;
7761;SDS011;3925;48.636;9.516;2022-11-15T00:06:12;1.30;;;1.20;;
7761;SDS011;3925;48.636;9.516;2022-11-15T00:08:39;1.63;;;1.40;;
7761;SDS011;3925;48.636;9.516;2022-11-15T00:11:06;1.30;;;1.20;;
7761;SDS011;3925;48.636;9.516;2022-11-15T00:13:33;1.37;;;1.23;;
7761;SDS011;3925;48.636;9.516;2022-11-15T00:16:00;4.80;;;1.50;;
7761;SDS011;3925;48.636;9.516;2022-11-15T00:18:29;1.80;;;1.30;;
7761;SDS011;3925;48.636;9.516;2022-11-15T00:21:02;1.60;;;1.50;;
7761;SDS011;3925;48.636;9.516;2022-11-15T00:23:30;3.23;;;1.30;;
7761;SDS011;3925;48.636;9.516;2022-11-15T00:25:57;2.00;;;1.27;;
7761;SDS011;3925;48.636;9.516;2022-11-15T00:28:24;1.23;;;1.13;;
7761;SDS011;3925;48.636;9.516;2022-11-15T00:30:52;1.37;;;1.30;;
7761;SDS011;3925;48.636;9.516;2022-11-15T00:33:19;1.30;;;1.20;;
7761;SDS011;3925;48.636;9.516;2022-11-15T00:35:47;1.93;;;1.30;;
7761;SDS011;3925;48.636;9.516;2022-11-15T00:38:14;1.43;;;1.10;;
7761;SDS011;3925;48.636;9.516;2022-11-15T00:40:41;2.90;;;1.13;;
7761;SDS011;3925;48.636;9.516;2022-11-15T00:43:07;1.23;;;0.90;;
7761;SDS011;3925;48.636;9.516;2022-11-15T00:45:34;1.63;;;1.53;;
7761;SDS011;3925;48.636;9.516;2022-11-15T00:48:01;2.33;;;1.27;;
7761;SDS011;3925;48.636;9.516;2022-11-15T00:50:28;0.93;;;0.87;;
7761;SDS011;3925;48.636;9.516;2022-11-15T00:52:57;1.60;;;1.00;;
7761;SDS011;3925;48.636;9.516;2022-11-15T00:55:24;1.47;;;1.30;;
7761;SDS011;3925;48.636;9.516;2022-11-15T00:57:51;1.80;;;1.20;;
7761;SDS011;3925;48.636;9.516;2022-11-15T01:00:17;3.03;;;2.10;;
7761;SDS011;3925;48.636;9.516;2022-11-15T01:02:44;2.20;;;2.00;;
7761;SDS011;3925;48.636;9.516;2022-11-15T01:05:11;2.80;;;1.93;;
7761;SDS011;3925;48.636;9.516;2022-11-15T01:07:38;4.30;;;2.37;;
7761;SDS011;3925;48.636;9.516;2022-11-15T01:10:07;1.80;;;1.70;;
7761;SDS011;3925;48.636;9.516;2022-11-15T01:12:34;3.20;;;2.47;;
7761;SDS011;3925;48.636;9.516;2022-11-15T01:15:02;1.90;;;1.70;;
7761;SDS011;3925;48.636;9.516;2022-11-15T01:17:29;2.83;;;2.33;;
7761;SDS011;3925;48.636;9.516;2022-11-15T01:19:57;2.73;;;2.43;;
7761;SDS011;3925;48.636;9.516;2022-11-15T01:22:24;3.23;;;2.70;;
7761;SDS011;3925;48.636;9.516;2022-11-15T01:24:51;2.90;;;2.30;;
7761;SDS011;3925;48.636;9.516;2022-11-15T01:27:19;3.20;;;2.90;;
7761;SDS011;3925;48.636;9.516;2022-11-15T01:29:46;4.30;;;3.00;;
7761;SDS011;3925;48.636;9.516;2022-11-15T01:32:13;3.90;;;3.60;;
7761;SDS011;3925;48.636;9.516;2022-11-15T01:34:40;4.10;;;3.70;;
7761;SDS011;3925;48.636;9.516;2022-11-15T01:37:07;4.43;;;3.63;;
7761;SDS011;3925;48.636;9.516;2022-11-15T01:39:34;3.70;;;3.30;;
7761;SDS011;3925;48.636;9.516;2022-11-15T01:42:01;4.07;;;3.67;;
7761;SDS011;3925;48.636;9.516;2022-11-15T01:44:38;4.13;;;3.40;;
7761;SDS011;3925;48.636;9.516;2022-11-15T01:47:07;6.07;;;3.97;;
7761;SDS011;3925;48.636;9.516;2022-11-15T01:49:40;4.60;;;3.40;;
7761;SDS011;3925;48.636;9.516;2022-11-15T01:52:15;4.73;;;3.43;;
7761;SDS011;3925;48.636;9.516;2022-11-15T01:54:45;4.23;;;3.53;;
7761;SDS011;3925;48.636;9.516;2022-11-15T01:57:13;4.90;;;3.73;;
7761;SDS011;3925;48.636;9.516;2022-11-15T01:59:42;4.43;;;3.70;;
7761;SDS011;3925;48.636;9.516;2022-11-15T02:02:10;7.03;;;3.73;;
7761;SDS011;3925;48.636;9.516;2022-11-15T02:04:40;4.70;;;3.77;;
7761;SDS011;3925;48.636;9.516;2022-11-15T02:07:08;4.00;;;3.60;;
7761;SDS011;3925;48.636;9.516;2022-11-15T02:09:37;3.80;;;2.90;;
7761;SDS011;3925;48.636;9.516;2022-11-15T02:12:04;4.50;;;3.83;;
7761;SDS011;3925;48.636;9.516;2022-11-15T02:14:33;2.97;;;2.77;;
7761;SDS011;3925;48.636;9.516;2022-11-15T02:17:05;3.77;;;3.30;;
7761;SDS011;3925;48.636;9.516;2022-11-15T02:19:54;5.20;;;3.33;;
7761;SDS011;3925;48.636;9.516;2022-11-15T02:23:14;3.70;;;3.17;;
7761;SDS011;3925;48.636;9.516;2022-11-15T02:26:09;3.60;;;3.20;;
7761;SDS011;3925;48.636;9.516;2022-11-15T02:28:57;5.07;;;2.40;;
7761;SDS011;3925;48.636;9.516;2022-11-15T02:31:31;4.40;;;3.00;;
7761;SDS011;3925;48.636;9.516;2022-11-15T02:34:08;3.47;;;2.80;;
7761;SDS011;3925;48.636;9.516;2022-11-15T02:36:49;2.20;;;1.90;;
7761;SDS011;3925;48.636;9.516;2022-11-15T02:39:24;2.63;;;2.10;;
7761;SDS011;3925;48.636;9.516;2022-11-15T02:42:00;2.50;;;2.20;;
7761;SDS011;3925;48.636;9.516;2022-11-15T02:44:50;3.47;;;1.97;;
7761;SDS011;3925;48.636;9.516;2022-11-15T02:47:19;2.20;;;2.10;;
7761;SDS011;3925;48.636;9.516;2022-11-15T02:49:49;2.10;;;1.70;;
7761;SDS011;3925;48.636;9.516;2022-11-15T02:52:20;2.30;;;1.87;;
7761;SDS011;3925;48.636;9.516;2022-11-15T02:54:52;2.33;;;1.90;;
7761;SDS011;3925;48.636;9.516;2022-11-15T02:57:23;3.03;;;1.63;;
7761;SDS011;3925;48.636;9.516;2022-11-15T03:00:04;2.73;;;2.33;;
7761;SDS011;3925;48.636;9.516;2022-11-15T03:05:41;2.50;;;1.70;;
7761;SDS011;3925;48.636;9.516;2022-11-15T03:08:17;2.30;;;2.00;;
7761;SDS011;3925;48.636;9.516;2022-11-15T03:10:50;1.67;;;1.57;;
7761;SDS011;3925;48.636;9.516;2022-11-15T03:13:24;2.90;;;2.70;;
7761;SDS011;3925;48.636;9.516;2022-11-15T03:15:56;5.03;;;1.57;;
7761;SDS011;3925;48.636;9.516;2022-11-15T03:18:32;2.30;;;2.03;;
7761;SDS011;3925;48.636;9.516;2022-11-15T03:21:02;2.50;;;1.47;;
7761;SDS011;3925;48.636;9.516;2022-11-15T03:23:33;3.50;;;1.70;;
7761;SDS011;3925;48.636;9.516;2022-11-15T03:26:02;4.63;;;2.10;;
7761;SDS011;3925;48.636;9.516;2022-11-15T03:28:34;4.53;;;2.90;;
7761;SDS011;3925;48.636;9.516;2022-11-15T03:31:03;2.23;;;2.03;;
7761;SDS011;3925;48.636;9.516;2022-11-15T03:33:54;5.73;;;2.13;;
7761;SDS011;3925;48.636;9.516;2022-11-15T03:36:23;2.60;;;2.03;;
7761;SDS011;3925;48.636;9.516;2022-11-15T03:38:51;3.07;;;2.33;;
7761;SDS011;3925;48.636;9.516;2022-11-15T03:41:23;3.70;;;2.60;;
7761;SDS011;3925;48.636;9.516;2022-11-15T03:43:56;2.63;;;2.30;;
7761;SDS011;3925;48.636;9.516;2022-11-15T03:46:25;2.20;;;2.00;;
7761;SDS011;3925;48.636;9.516;2022-11-15T03:49:00;2.83;;;2.60;;
7761;SDS011;3925;48.636;9.516;2022-11-15T03:51:32;2.47;;;2.27;;
7761;SDS011;3925;48.636;9.516;2022-11-15T03:53:59;2.83;;;2.53;;
7761;SDS011;3925;48.636;9.516;2022-11-15T03:56:29;2.60;;;2.40;;
7761;SDS011;3925;48.636;9.516;2022-11-15T03:58:56;3.77;;;3.37;;
7761;SDS011;3925;48.636;9.516;2022-11-15T04:01:23;2.60;;;2.40;;
7761;SDS011;3925;48.636;9.516;2022-11-15T04:03:50;2.73;;;2.53;;
7761;SDS011;3925;48.636;9.516;2022-11-15T04:06:18;3.93;;;2.60;;
7761;SDS011;3925;48.636;9.516;2022-11-15T04:08:45;2.83;;;2.63;;
7761;SDS011;3925;48.636;9.516;2022-11-15T04:11:11;3.07;;;2.77;;
7761;SDS011;3925;48.636;9.516;2022-11-15T04:13:38;5.30;;;3.07;;
7761;SDS011;3925;48.636;9.516;2022-11-15T04:16:05;3.00;;;2.80;;
7761;SDS011;3925;48.636;9.516;2022-11-15T04:18:32;6.00;;;2.40;;
7761;SDS011;3925;48.636;9.516;2022-11-15T04:20:59;6.30;;;2.83;;
7761;SDS011;3925;48.636;9.516;2022-11-15T04:23:45;1.93;;;1.80;;
7761;SDS011;3925;48.636;9.516;2022-11-15T04:26:25;1.87;;;1.60;;
7761;SDS011;3925;48.636;9.516;2022-11-15T04:28:54;1.83;;;1.57;;
7761;SDS011;3925;48.636;9.516;2022-11-15T04:31:38;1.83;;;1.73;;
7761;SDS011;3925;48.636;9.516;2022-11-15T04:34:05;5.70;;;3.10;;
7761;SDS011;3925;48.636;9.516;2022-11-15T04:36:32;2.80;;;1.80;;
7761;SDS011;3925;48.636;9.516;2022-11-15T04:39:18;3.10;;;1.90;;
7761;SDS011;3925;48.636;9.516;2022-11-15T04:41:44;1.90;;;1.80;;
7761;SDS011;3925;48.636;9.516;2022-11-15T04:44:11;5.23;;;2.43;;
7761;SDS011;3925;48.636;9.516;2022-11-15T04:46:38;2.90;;;1.90;;
7761;SDS011;3925;48.636;9.516;2022-11-15T04:49:05;3.33;;;2.73;;
7761;SDS011;3925;48.636;9.516;2022-11-15T04:51:32;4.37;;;2.73;;
7761;SDS011;3925;48.636;9.516;2022-11-15T04:53:59;4.77;;;3.60;;
7761;SDS011;3925;48.636;9.516;2022-11-15T04:56:27;4.57;;;3.53;;
7761;SDS011;3925;48.636;9.516;2022-11-15T04:58:54;4.20;;;3.17;;
7761;SDS011;3925;48.636;9.516;2022-11-15T05:01:21;3.97;;;3.67;;
7761;SDS011;3925;48.636;9.516;2022-11-15T05:03:47;4.17;;;3.33;;
7761;SDS011;3925;48.636;9.516;2022-11-15T05:06:32;6.70;;;3.03;;
7761;SDS011;3925;48.636;9.516;2022-11-15T05:08:58;6.23;;;3.37;;
7761;SDS011;3925;48.636;9.516;2022-11-15T05:11:26;3.43;;;3.13;;
7761;SDS011;3925;48.636;9.516;2022-11-15T05:13:54;3.77;;;3.03;;
7761;SDS011;3925;48.636;9.516;2022-11-15T05:16:21;3.53;;;2.70;;
7761;SDS011;3925;48.636;9.516;2022-11-15T05:18:50;3.73;;;3.40;;
7761;SDS011;3925;48.636;9.516;2022-11-15T05:21:17;4.90;;;4.47;;
7761;SDS011;3925;48.636;9.516;2022-11-15T05:23:44;5.40;;;4.53;;
7761;SDS011;3925;48.636;9.516;2022-11-15T05:26:11;9.17;;;5.40;;
7761;SDS011;3925;48.636;9.516;2022-11-15T05:28:39;5.97;;;5.13;;
7761;SDS011;3925;48.636;9.516;2022-11-15T05:31:07;6.27;;;5.63;;
7761;SDS011;3925;48.636;9.516;2022-11-15T05:33:35;6.10;;;5.50;;
7761;SDS011;3925;48.636;9.516;2022-11-15T05:36:04;7.50;;;5.80;;
7761;SDS011;3925;48.636;9.516;2022-11-15T05:38:34;8.40;;;6.77;;
7761;SDS011;3925;48.636;9.516;2022-11-15T05:41:00;6.03;;;5.53;;
7761;SDS011;3925;48.636;9.516;2022-11-15T05:43:29;5.43;;;4.93;;
7761;SDS011;3925;48.636;9.516;2022-11-15T05:46:00;5.47;;;4.97;;
7761;SDS011;3925;48.636;9.516;2022-11-15T05:48:30;12.73;;;8.50;;
7761;SDS011;3925;48.636;9.516;2022-11-15T05:50:57;8.27;;;6.13;;
7761;SDS011;3925;48.636;9.516;2022-11-15T05:53:25;7.27;;;4.73;;
7761;SDS011;3925;48.636;9.516;2022-11-15T05:55:52;9.30;;;6.80;;
7761;SDS011;3925;48.636;9.516;2022-11-15T05:58:19;5.03;;;4.53;;
7761;SDS011;3925;48.636;9.516;2022-11-15T06:00:47;11.67;;;10.03;;
7761;SDS011;3925;48.636;9.516;2022-11-15T06:03:15;11.37;;;10.00;;
7761;SDS011;3925;48.636;9.516;2022-11-15T06:05:42;13.40;;;10.37;;
7761;SDS011;3925;48.636;9.516;2022-11-15T06:08:09;10.90;;;9.77;;
7761;SDS011;3925;48.636;9.516;2022-11-15T06:10:36;9.53;;;8.00;;
7761;SDS011;3925;48.636;9.516;2022-11-15T06:13:03;5.80;;;5.30;;
7761;SDS011;3925;48.636;9.516;2022-11-15T06:15:31;5.13;;;4.63;;
7761;SDS011;3925;48.636;9.516;2022-11-15T06:17:58;4.80;;;4.40;;
7761;SDS011;3925;48.636;9.516;2022-11-15T06:20:27;5.23;;;4.70;;
7761;SDS011;3925;48.636;9.516;2022-11-15T06:22:58;5.50;;;4.97;;
7761;SDS011;3925;48.636;9.516;2022-11-15T06:25:28;10.23;;;9.00;;
7761;SDS011;3925;48.636;9.516;2022-11-15T06:27:55;10.10;;;7.80;;
7761;SDS011;3925;48.636;9.516;2022-11-15T06:30:26;10.07;;;7.80;;
7761;SDS011;3925;48.636;9.516;2022-11-15T06:32:58;10.93;;;9.73;;
7761;SDS011;3925;48.636;9.516;2022-11-15T06:35:28;9.87;;;6.90;;
7761;SDS011;3925;48.636;9.516;2022-11-15T06:38:01;6.37;;;5.87;;
7761;SDS011;3925;48.636;9.516;2022-11-15T06:40:29;8.17;;;7.30;;
7761;SDS011;3925;48.636;9.516;2022-11-15T06:42:59;6.63;;;5.53;;
7761;SDS011;3925;48.636;9.516;2022-11-15T06:45:26;6.27;;;5.60;;
7761;SDS011;3925;48.636;9.516;2022-11-15T06:47:58;7.97;;;5.33;;
7761;SDS011;3925;48.636;9.516;2022-11-15T06:50:25;6.83;;;5.50;;
7761;SDS011;3925;48.636;9.516;2022-11-15T06:52:53;9.80;;;5.10;;
7761;SDS011;3925;48.636;9.516;2022-11-15T06:55:20;9.17;;;6.43;;
7761;SDS011;3925;48.636;9.516;2022-11-15T06:57:47;7.80;;;7.00;;
7761;SDS011;3925;48.636;9.516;2022-11-15T07:00:16;9.17;;;8.37;;
7761;SDS011;3925;48.636;9.516;2022-11-15T07:02:43;6.63;;;6.03;;
7761;SDS011;3925;48.636;9.516;2022-11-15T07:05:10;6.70;;;5.87;;
7761;SDS011;3925;48.636;9.516;2022-11-15T07:07:41;5.93;;;5.33;;
7761;SDS011;3925;48.636;9.516;2022-11-15T07:10:09;5.93;;;4.97;;
7761;SDS011;3925;48.636;9.516;2022-11-15T07:12:36;5.97;;;5.10;;
7761;SDS011;3925;48.636;9.516;2022-11-15T07:15:04;6.40;;;4.83;;
7761;SDS011;3925;48.636;9.516;2022-11-15T07:17:31;5.37;;;4.57;;
7761;SDS011;3925;48.636;9.516;2022-11-15T07:19:58;5.73;;;4.97;;
7761;SDS011;3925;48.636;9.516;2022-11-15T07:22:25;7.20;;;4.40;;
7761;SDS011;3925;48.636;9.516;2022-11-15T07:24:52;4.40;;;4.00;;
7761;SDS011;3925;48.636;9.516;2022-11-15T07:27:20;6.80;;;4.33;;
7761;SDS011;3925;48.636;9.516;2022-11-15T07:29:47;4.13;;;3.73;;
7761;SDS011;3925;48.636;9.516;2022-11-15T07:32:14;6.70;;;4.47;;
7761;SDS011;3925;48.636;9.516;2022-11-15T07:34:41;5.60;;;4.43;;
7761;SDS011;3925;48.636;9.516;2022-11-15T07:37:10;5.27;;;3.97;;
7761;SDS011;3925;48.636;9.516;2022-11-15T07:39:37;7.40;;;3.70;;
7761;SDS011;3925;48.636;9.516;2022-11-15T07:42:04;3.80;;;3.50;;
7761;SDS011;3925;48.636;9.516;2022-11-15T07:44:50;4.17;;;3.53;;
7761;SDS011;3925;48.636;9.516;2022-11-15T07:47:16;4.80;;;3.77;;
7761;SDS011;3925;48.636;9.516;2022-11-15T07:49:43;6.53;;;5.87;;
7761;SDS011;3925;48.636;9.516;2022-11-15T07:52:11;4.70;;;4.23;;
7761;SDS011;3925;48.636;9.516;2022-11-15T07:54:38;10.83;;;7.33;;
7761;SDS011;3925;48.636;9.516;2022-11-15T07:57:05;6.10;;;5.47;;
7761;SDS011;3925;48.636;9.516;2022-11-15T07:59:37;9.33;;;8.43;;
7761;SDS011;3925;48.636;9.516;2022-11-15T08:02:05;7.83;;;7.03;;
7761;SDS011;3925;48.636;9.516;2022-11-15T08:04:32;6.37;;;5.77;;
7761;SDS011;3925;48.636;9.516;2022-11-15T08:06:59;6.33;;;5.73;;
7761;SDS011;3925;48.636;9.516;2022-11-15T08:09:26;6.17;;;5.50;;
7761;SDS011;3925;48.636;9.516;2022-11-15T08:11:52;5.37;;;4.87;;
7761;SDS011;3925;48.636;9.516;2022-11-15T08:14:19;5.30;;;3.93;;
7761;SDS011;3925;48.636;9.516;2022-11-15T08:16:47;4.27;;;3.83;;
7761;SDS011;3925;48.636;9.516;2022-11-15T08:19:15;4.20;;;3.53;;
7761;SDS011;3925;48.636;9.516;2022-11-15T08:21:42;3.70;;;3.40;;
7761;SDS011;3925;48.636;9.516;2022-11-15T08:24:09;4.20;;;3.07;;
7761;SDS011;3925;48.636;9.516;2022-11-15T08:26:37;3.50;;;3.20;;
7761;SDS011;3925;48.636;9.516;2022-11-15T08:29:04;16.83;;;13.50;;
7761;SDS011;3925;48.636;9.516;2022-11-15T08:31:32;13.17;;;11.57;;
7761;SDS011;3925;48.636;9.516;2022-11-15T08:34:00;12.00;;;9.87;;
7761;SDS011;3925;48.636;9.516;2022-11-15T08:36:28;10.90;;;9.80;;
7761;SDS011;3925;48.636;9.516;2022-11-15T08:38:55;8.47;;;7.67;;
7761;SDS011;3925;48.636;9.516;2022-11-15T08:41:24;5.97;;;5.23;;
7761;SDS011;3925;48.636;9.516;2022-11-15T08:43:54;5.67;;;5.13;;
7761;SDS011;3925;48.636;9.516;2022-11-15T08:46:21;9.73;;;7.33;;
7761;SDS011;3925;48.636;9.516;2022-11-15T08:48:48;4.80;;;4.40;;
7761;SDS011;3925;48.636;9.516;2022-11-15T08:51:18;5.60;;;4.00;;
7761;SDS011;3925;48.636;9.516;2022-11-15T08:53:46;5.33;;;3.97;;
7761;SDS011;3925;48.636;9.516;2022-11-15T08:56:14;4.87;;;4.40;;
7761;SDS011;3925;48.636;9.516;2022-11-15T08:58:41;5.77;;;4.67;;
7761;SDS011;3925;48.636;9.516;2022-11-15T09:01:14;4.83;;;4.30;;
7761;SDS011;3925;48.636;9.516;2022-11-15T09:03:42;6.40;;;4.27;;
7761;SDS011;3925;48.636;9.516;2022-11-15T09:06:09;4.17;;;3.77;;
7761;SDS011;3925;48.636;9.516;2022-11-15T09:08:36;5.10;;;3.60;;
7761;SDS011;3925;48.636;9.516;2022-11-15T09:11:05;9.53;;;4.60;;
7761;SDS011;3925;48.636;9.516;2022-11-15T09:13:32;5.27;;;4.60;;
7761;SDS011;3925;48.636;9.516;2022-11-15T09:16:02;8.07;;;6.10;;
7761;SDS011;3925;48.636;9.516;2022-11-15T09:18:30;11.67;;;5.90;;
7761;SDS011;3925;48.636;9.516;2022-11-15T09:20:57;9.00;;;5.43;;
7761;SDS011;3925;48.636;9.516;2022-11-15T09:23:24;7.63;;;4.63;;
7761;SDS011;3925;48.636;9.516;2022-11-15T09:25:51;4.93;;;4.10;;
7761;SDS011;3925;48.636;9.516;2022-11-15T09:28:20;5.27;;;4.73;;
7761;SDS011;3925;48.636;9.516;2022-11-15T09:30:46;5.40;;;4.27;;
7761;SDS011;3925;48.636;9.516;2022-11-15T09:33:14;5.33;;;4.80;;
7761;SDS011;3925;48.636;9.516;2022-11-15T09:35:40;5.07;;;3.90;;
7761;SDS011;3925;48.636;9.516;2022-11-15T09:38:07;5.13;;;4.60;;
7761;SDS011;3925;48.636;9.516;2022-11-15T09:40:35;6.77;;;6.10;;
7761;SDS011;3925;48.636;9.516;2022-11-15T09:43:15;5.80;;;5.30;;
7761;SDS011;3925;48.636;9.516;2022-11-15T09:45:57;6.77;;;5.30;;
7761;SDS011;3925;48.636;9.516;2022-11-15T09:48:48;6.17;;;5.60;;
7761;SDS011;3925;48.636;9.516;2022-11-15T09:51:21;5.97;;;5.47;;
7761;SDS011;3925;48.636;9.516;2022-11-15T09:53:56;7.43;;;6.20;;
7761;SDS011;3925;48.636;9.516;2022-11-15T09:56:28;6.90;;;6.07;;
7761;SDS011;3925;48.636;9.516;2022-11-15T09:59:00;5.47;;;4.97;;
7761;SDS011;3925;48.636;9.516;2022-11-15T10:01:48;4.10;;;3.70;;
7761;SDS011;3925;48.636;9.516;2022-11-15T10:04:21;4.80;;;3.50;;
7761;SDS011;3925;48.636;9.516;2022-11-15T10:06:49;4.07;;;3.50;;
7761;SDS011;3925;48.636;9.516;2022-11-15T10:09:23;4.10;;;3.67;;
7761;SDS011;3925;48.636;9.516;2022-11-15T10:11:54;3.87;;;3.37;;
7761;SDS011;3925;48.636;9.516;2022-11-15T10:14:23;4.03;;;3.40;;
7761;SDS011;3925;48.636;9.516;2022-11-15T10:16:59;3.80;;;3.50;;
7761;SDS011;3925;48.636;9.516;2022-11-15T10:19:47;12.80;;;4.70;;
7761;SDS011;3925;48.636;9.516;2022-11-15T10:22:26;5.77;;;5.27;;
7761;SDS011;3925;48.636;9.516;2022-11-15T10:25:10;5.37;;;4.90;;
7761;SDS011;3925;48.636;9.516;2022-11-15T10:27:43;6.87;;;5.70;;
7761;SDS011;3925;48.636;9.516;2022-11-15T10:30:15;9.10;;;8.20;;
7761;SDS011;3925;48.636;9.516;2022-11-15T10:32:44;6.67;;;5.73;;
7761;SDS011;3925;48.636;9.516;2022-11-15T10:35:17;5.23;;;4.73;;
7761;SDS011;3925;48.636;9.516;2022-11-15T10:37:46;5.87;;;4.17;;
7761;SDS011;3925;48.636;9.516;2022-11-15T10:40:17;7.17;;;5.30;;
7761;SDS011;3925;48.636;9.516;2022-11-15T10:42:47;5.13;;;4.73;;
7761;SDS011;3925;48.636;9.516;2022-11-15T10:45:29;5.33;;;4.40;;
7761;SDS011;3925;48.636;9.516;2022-11-15T10:50:47;5.00;;;4.07;;
7761;SDS011;3925;48.636;9.516;2022-11-15T10:53:17;5.57;;;4.37;;
7761;SDS011;3925;48.636;9.516;2022-11-15T10:55:49;4.20;;;3.77;;
7761;SDS011;3925;48.636;9.516;2022-11-15T10:58:20;4.73;;;3.30;;
7761;SDS011;3925;48.636;9.516;2022-11-15T11:00:57;4.77;;;4.07;;
7761;SDS011;3925;48.636;9.516;2022-11-15T11:03:36;3.70;;;3.17;;
7761;SDS011;3925;48.636;9.516;2022-11-15T11:06:05;3.70;;;3.27;;
7761;SDS011;3925;48.636;9.516;2022-11-15T11:08:35;3.60;;;3.30;;
7761;SDS011;3925;48.636;9.516;2022-11-15T11:11:03;3.70;;;3.30;;
7761;SDS011;3925;48.636;9.516;2022-11-15T11:13:31;7.03;;;5.10;;
7761;SDS011;3925;48.636;9.516;2022-11-15T11:16:04;5.70;;;4.70;;
7761;SDS011;3925;48.636;9.516;2022-11-15T11:18:53;6.43;;;5.40;;
7761;SDS011;3925;48.636;9.516;2022-11-15T11:21:27;5.83;;;5.33;;
7761;SDS011;3925;48.636;9.516;2022-11-15T11:24:04;6.27;;;5.60;;
7761;SDS011;3925;48.636;9.516;2022-11-15T11:26:40;7.67;;;6.87;;
7761;SDS011;3925;48.636;9.516;2022-11-15T11:29:25;10.73;;;7.80;;
7761;SDS011;3925;48.636;9.516;2022-11-15T11:32:02;7.23;;;6.60;;
7761;SDS011;3925;48.636;9.516;2022-11-15T11:34:50;13.80;;;10.00;;
7761;SDS011;3925;48.636;9.516;2022-11-15T11:37:27;9.13;;;8.33;;
7761;SDS011;3925;48.636;9.516;2022-11-15T11:40:03;8.60;;;7.70;;
7761;SDS011;3925;48.636;9.516;2022-11-15T11:42:42;11.80;;;8.90;;
7761;SDS011;3925;48.636;9.516;2022-11-15T11:45:21;10.47;;;9.47;;
7761;SDS011;3925;48.636;9.516;2022-11-15T11:47:55;11.10;;;9.50;;
7761;SDS011;3925;48.636;9.516;2022-11-15T11:50:29;10.17;;;9.10;;
7761;SDS011;3925;48.636;9.516;2022-11-15T11:52:59;10.63;;;8.03;;
7761;SDS011;3925;48.636;9.516;2022-11-15T11:55:31;9.20;;;8.30;;
7761;SDS011;3925;48.636;9.516;2022-11-15T11:58:04;10.27;;;8.17;;
7761;SDS011;3925;48.636;9.516;2022-11-15T12:00:40;11.60;;;8.70;;
7761;SDS011;3925;48.636;9.516;2022-11-15T12:03:11;10.23;;;9.13;;
7761;SDS011;3925;48.636;9.516;2022-11-15T12:05:46;12.03;;;7.57;;
7761;SDS011;3925;48.636;9.516;2022-11-15T12:08:23;8.57;;;7.70;;
7761;SDS011;3925;48.636;9.516;2022-11-15T12:10:58;8.70;;;6.60;;
7761;SDS011;3925;48.636;9.516;2022-11-15T12:13:29;9.17;;;7.53;;
7761;SDS011;3925;48.636;9.516;2022-11-15T12:16:02;9.90;;;7.90;;
7761;SDS011;3925;48.636;9.516;2022-11-15T12:18:35;9.40;;;7.70;;
7761;SDS011;3925;48.636;9.516;2022-11-15T12:21:03;8.73;;;7.90;;
7761;SDS011;3925;48.636;9.516;2022-11-15T12:23:40;9.53;;;7.80;;
7761;SDS011;3925;48.636;9.516;2022-11-15T12:26:14;8.80;;;7.90;;
7761;SDS011;3925;48.636;9.516;2022-11-15T12:28:45;9.00;;;7.50;;
7761;SDS011;3925;48.636;9.516;2022-11-15T12:31:20;8.17;;;7.30;;
7761;SDS011;3925;48.636;9.516;2022-11-15T12:33:54;9.10;;;6.70;;
7761;SDS011;3925;48.636;9.516;2022-11-15T12:36:36;5.77;;;5.17;;
7761;SDS011;3925;48.636;9.516;2022-11-15T12:39:05;5.70;;;4.87;;
7761;SDS011;3925;48.636;9.516;2022-11-15T12:41:34;8.13;;;5.80;;
7761;SDS011;3925;48.636;9.516;2022-11-15T12:44:02;7.50;;;5.37;;
7761;SDS011;3925;48.636;9.516;2022-11-15T12:49:45;8.73;;;5.20;;
7761;SDS011;3925;48.636;9.516;2022-11-15T12:52:12;8.10;;;7.30;;
7761;SDS011;3925;48.636;9.516;2022-11-15T12:57:54;8.97;;;8.03;;
7761;SDS011;3925;48.636;9.516;2022-11-15T13:03:16;11.17;;;7.40;;
7761;SDS011;3925;48.636;9.516;2022-11-15T13:05:57;14.03;;;7.70;;
7761;SDS011;3925;48.636;9.516;2022-11-15T13:08:48;8.97;;;7.37;;
7761;SDS011;3925;48.636;9.516;2022-11-15T13:17:15;8.43;;;6.90;;
7761;SDS011;3925;48.636;9.516;2022-11-15T13:20:07;8.87;;;6.80;;
7761;SDS011;3925;48.636;9.516;2022-11-15T13:22:48;15.97;;;7.20;;
7761;SDS011;3925;48.636;9.516;2022-11-15T13:28:20;9.40;;;7.23;;
7761;SDS011;3925;48.636;9.516;2022-11-15T13:30:52;9.40;;;6.87;;
7761;SDS011;3925;48.636;9.516;2022-11-15T13:33:20;11.23;;;7.30;;
7761;SDS011;3925;48.636;9.516;2022-11-15T13:35:50;11.80;;;7.60;;
7761;SDS011;3925;48.636;9.516;2022-11-15T13:38:27;10.53;;;7.83;;
7761;SDS011;3925;48.636;9.516;2022-11-15T13:40:56;9.40;;;6.10;;
7761;SDS011;3925;48.636;9.516;2022-11-15T13:43:29;11.77;;;7.97;;
7761;SDS011;3925;48.636;9.516;2022-11-15T13:46:03;11.17;;;7.20;;
7761;SDS011;3925;48.636;9.516;2022-11-15T13:48:36;11.37;;;10.17;;
7761;SDS011;3925;48.636;9.516;2022-11-15T13:51:04;14.70;;;12.57;;
7761;SDS011;3925;48.636;9.516;2022-11-15T13:53:37;14.03;;;12.10;;
7761;SDS011;3925;48.636;9.516;2022-11-15T13:56:07;10.03;;;8.97;;
7761;SDS011;3925;48.636;9.516;2022-11-15T13:58:36;7.27;;;6.23;;
7761;SDS011;3925;48.636;9.516;2022-11-15T14:01:05;10.00;;;7.57;;
7761;SDS011;3925;48.636;9.516;2022-11-15T14:03:33;9.37;;;7.13;;
7761;SDS011;3925;48.636;9.516;2022-11-15T14:06:10;8.43;;;5.80;;
7761;SDS011;3925;48.636;9.516;2022-11-15T14:08:41;6.90;;;6.20;;
7761;SDS011;3925;48.636;9.516;2022-11-15T14:11:23;9.67;;;8.60;;
7761;SDS011;3925;48.636;9.516;2022-11-15T14:14:01;12.10;;;9.17;;
7761;SDS011;3925;48.636;9.516;2022-11-15T14:16:37;18.30;;;13.30;;
7761;SDS011;3925;48.636;9.516;2022-11-15T14:19:06;13.37;;;9.60;;
7761;SDS011;3925;48.636;9.516;2022-11-15T14:21:37;11.80;;;8.53;;
7761;SDS011;3925;48.636;9.516;2022-11-15T14:24:29;10.20;;;8.30;;
7761;SDS011;3925;48.636;9.516;2022-11-15T14:26:57;8.33;;;7.23;;
7761;SDS011;3925;48.636;9.516;2022-11-15T14:29:46;11.27;;;6.90;;
7761;SDS011;3925;48.636;9.516;2022-11-15T14:32:15;6.57;;;5.70;;
7761;SDS011;3925;48.636;9.516;2022-11-15T14:34:44;6.90;;;6.20;;
7761;SDS011;3925;48.636;9.516;2022-11-15T14:37:16;6.30;;;5.43;;
7761;SDS011;3925;48.636;9.516;2022-11-15T14:39:48;5.30;;;4.63;;
7761;SDS011;3925;48.636;9.516;2022-11-15T14:42:16;6.40;;;5.23;;
7761;SDS011;3925;48.636;9.516;2022-11-15T14:44:43;6.27;;;5.23;;
7761;SDS011;3925;48.636;9.516;2022-11-15T14:47:10;7.97;;;7.17;;
7761;SDS011;3925;48.636;9.516;2022-11-15T14:49:37;8.93;;;5.63;;
7761;SDS011;3925;48.636;9.516;2022-11-15T14:52:07;6.33;;;4.50;;
7761;SDS011;3925;48.636;9.516;2022-11-15T14:54:45;4.87;;;4.10;;
7761;SDS011;3925;48.636;9.516;2022-11-15T14:57:14;4.73;;;4.30;;
7761;SDS011;3925;48.636;9.516;2022-11-15T14:59:41;4.40;;;3.57;;
7761;SDS011;3925;48.636;9.516;2022-11-15T15:02:09;4.07;;;3.67;;
7761;SDS011;3925;48.636;9.516;2022-11-15T15:04:42;3.40;;;3.10;;
7761;SDS011;3925;48.636;9.516;2022-11-15T15:07:08;7.80;;;4.57;;
7761;SDS011;3925;48.636;9.516;2022-11-15T15:09:35;6.00;;;3.30;;
7761;SDS011;3925;48.636;9.516;2022-11-15T15:12:03;3.23;;;2.83;;
7761;SDS011;3925;48.636;9.516;2022-11-15T15:14:31;4.73;;;2.97;;
7761;SDS011;3925;48.636;9.516;2022-11-15T15:16:58;4.20;;;2.80;;
7761;SDS011;3925;48.636;9.516;2022-11-15T15:19:25;5.90;;;3.23;;
7761;SDS011;3925;48.636;9.516;2022-11-15T15:21:52;3.00;;;2.57;;
7761;SDS011;3925;48.636;9.516;2022-11-15T15:24:19;3.60;;;3.30;;
7761;SDS011;3925;48.636;9.516;2022-11-15T15:26:45;5.43;;;2.90;;
7761;SDS011;3925;48.636;9.516;2022-11-15T15:29:12;5.13;;;4.00;;
7761;SDS011;3925;48.636;9.516;2022-11-15T15:31:41;12.60;;;9.90;;
7761;SDS011;3925;48.636;9.516;2022-11-15T15:34:08;10.40;;;6.37;;
7761;SDS011;3925;48.636;9.516;2022-11-15T15:36:35;8.10;;;5.17;;
7761;SDS011;3925;48.636;9.516;2022-11-15T15:39:02;15.13;;;13.53;;
7761;SDS011;3925;48.636;9.516;2022-11-15T15:41:29;8.17;;;7.17;;
7761;SDS011;3925;48.636;9.516;2022-11-15T15:43:56;5.00;;;4.50;;
7761;SDS011;3925;48.636;9.516;2022-11-15T15:46:24;3.93;;;3.03;;
7761;SDS011;3925;48.636;9.516;2022-11-15T15:48:52;4.50;;;3.70;;
7761;SDS011;3925;48.636;9.516;2022-11-15T15:51:19;3.67;;;3.37;;
7761;SDS011;3925;48.636;9.516;2022-11-15T15:53:46;4.00;;;3.63;;
7761;SDS011;3925;48.636;9.516;2022-11-15T15:56:15;8.20;;;4.40;;
7761;SDS011;3925;48.636;9.516;2022-11-15T15:58:42;10.03;;;6.67;;